Time;durP1;ratioP1;P1;durP2;ratioP2;P2;SDS_P1;SDS_P2;PMS_P1;PMS_P2;Temp;Humidity;BMP_temperature;BMP_pressure;BME280_temperature;BME280_humidity;BME280_pressure;Samples;Min_cycle;Max_cycle;Signal;HPM_P1;HPM_P2
2022/10/04 00:00:40;;;;;;;6.80;1.33;;;;;;;11.42;100.00;101300.09;5079328;28;20224;-71
2022/10/04 00:03:16;;;;;;;4.33;1.43;;;;;;;11.40;100.00;101300.13;5076311;28;20205;-71
2022/10/04 00:05:43;;;;;;;7.20;1.10;;;;;;;11.39;100.00;101300.16;5078461;28;20773;-72
2022/10/04 00:08:24;;;;;;;2.77;0.90;;;;;;;11.40;100.00;101297.50;5060175;28;20198;-71
2022/10/04 00:11:05;;;;;;;4.33;1.50;;;;;;;11.38;100.00;101294.09;5081821;28;20267;-71
2022/10/04 00:13:34;;;;;;;3.57;1.30;;;;;;;11.39;100.00;101295.78;5076727;28;20216;-71
2022/10/04 00:16:01;;;;;;;3.60;1.20;;;;;;;11.38;100.00;101294.09;5076962;28;20221;-72
2022/10/04 00:18:37;;;;;;;3.70;1.77;;;;;;;11.37;100.00;101289.72;5072839;28;20288;-72
2022/10/04 00:21:05;;;;;;;2.70;1.10;;;;;;;11.38;100.00;101294.09;5060366;28;20206;-71
2022/10/04 00:23:44;;;;;;;3.20;1.20;;;;;;;11.38;100.00;101296.69;5077361;28;20221;-71
2022/10/04 00:26:29;;;;;;;2.73;1.40;;;;;;;11.37;100.00;101293.19;5080809;28;20587;-71
2022/10/04 00:28:55;;;;;;;3.63;1.00;;;;;;;11.36;100.00;101291.50;5033335;28;20202;-71
2022/10/04 00:31:24;;;;;;;4.50;1.17;;;;;;;11.36;100.00;101290.59;5076646;28;20217;-72
2022/10/04 00:33:54;;;;;;;6.40;1.60;;;;;;;11.35;100.00;101291.50;5081069;28;20709;-71
2022/10/04 00:36:46;;;;;;;8.50;1.40;;;;;;;11.34;100.00;101298.50;5078999;28;20525;-71
2022/10/04 00:39:38;;;;;;;3.20;1.33;;;;;;;11.34;100.00;101298.50;5077588;28;21277;-71
2022/10/04 00:42:32;;;;;;;7.00;1.70;;;;;;;11.35;100.00;101301.97;5077578;28;20288;-71
2022/10/04 00:45:02;;;;;;;3.27;1.00;;;;;;;11.36;100.00;101295.84;5072369;28;20194;-71
2022/10/04 00:47:34;;;;;;;2.47;1.07;;;;;;;11.37;100.00;101293.19;5081748;28;20765;-71
2022/10/04 00:50:11;;;;;;;5.00;1.20;;;;;;;11.39;100.00;101293.16;5079909;28;20211;-72
2022/10/04 00:52:44;;;;;;;3.30;1.50;;;;;;;11.40;100.00;101294.91;5066304;28;20263;-71
2022/10/04 00:55:24;;;;;;;2.93;1.20;;;;;;;11.41;100.00;101291.38;5077602;28;20776;-71
2022/10/04 00:57:58;;;;;;;3.80;1.30;;;;;;;11.42;100.00;101298.34;5055893;28;20202;-71
2022/10/04 01:00:26;;;;;;;5.60;1.57;;;;;;;11.42;100.00;101295.72;5079798;28;20533;-71
2022/10/04 01:02:58;;;;;;;5.53;1.23;;;;;;;11.43;100.00;101287.00;5070425;28;20586;-71
2022/10/04 01:05:32;;;;;;;2.77;1.10;;;;;;;11.45;100.00;101292.19;5076757;28;20222;-71
2022/10/04 01:08:06;;;;;;;3.90;0.90;;;;;;;11.45;100.00;101294.78;5081437;28;20205;-71
2022/10/04 01:10:42;;;;;;;3.40;1.37;;;;;;;11.45;100.00;101293.06;5075481;28;20224;-71
2022/10/04 01:13:13;;;;;;;4.80;1.90;;;;;;;11.44;100.00;101283.50;5062563;28;21263;-71
2022/10/04 01:15:44;;;;;;;4.57;1.57;;;;;;;11.45;100.00;101279.13;5074844;28;20220;-72
2022/10/04 01:18:22;;;;;;;2.87;1.30;;;;;;;11.47;100.00;101290.44;5080373;28;20419;-71
2022/10/04 01:20:54;;;;;;;6.20;1.17;;;;;;;11.47;100.00;101283.44;5062107;28;20198;-71
2022/10/04 01:23:38;;;;;;;6.27;1.50;;;;;;;11.46;100.00;101292.16;5082099;28;20203;-71
2022/10/04 01:26:05;;;;;;;3.00;1.20;;;;;;;11.47;100.00;101288.69;5083236;28;20211;-71
2022/10/04 01:28:34;;;;;;;2.27;0.90;;;;;;;11.46;100.00;101286.09;5081136;28;20202;-71
2022/10/04 01:31:00;;;;;;;2.00;0.93;;;;;;;11.47;100.00;101288.69;5084785;28;20193;-72
2022/10/04 01:33:28;;;;;;;5.27;1.30;;;;;;;11.47;100.00;101286.06;5086445;28;20657;-71
2022/10/04 01:35:54;;;;;;;2.00;1.40;;;;;;;11.46;100.00;101286.09;5083750;28;20221;-71
2022/10/04 01:38:21;;;;;;;3.70;1.30;;;;;;;11.47;100.00;101290.44;5066326;28;20553;-71
2022/10/04 01:40:54;;;;;;;4.17;1.10;;;;;;;11.48;100.00;101286.91;5082432;28;20203;-71
2022/10/04 01:43:28;;;;;;;5.03;1.13;;;;;;;11.48;100.00;101287.75;5085189;28;20195;-71
2022/10/04 01:45:58;;;;;;;6.33;1.37;;;;;;;11.48;100.00;101281.69;5081361;28;20596;-71
2022/10/04 01:48:30;;;;;;;2.33;1.30;;;;;;;11.47;100.00;101282.59;5081213;28;20213;-72
2022/10/04 01:50:59;;;;;;;4.10;1.20;;;;;;;11.47;100.00;101285.22;5080475;28;20198;-71
2022/10/04 01:53:29;;;;;;;4.23;1.30;;;;;;;11.47;100.00;101291.28;5084988;28;20191;-71
2022/10/04 01:56:05;;;;;;;3.90;1.07;;;;;;;11.47;100.00;101282.59;5080779;28;20234;-71
2022/10/04 01:58:39;;;;;;;6.10;1.20;;;;;;;11.46;100.00;101279.09;5082124;28;20205;-71
2022/10/04 02:01:11;;;;;;;6.47;1.63;;;;;;;11.45;100.00;101284.34;5078831;28;20218;-71
2022/10/04 02:03:43;;;;;;;5.80;1.30;;;;;;;11.45;100.00;101273.91;5081798;28;20194;-71
2022/10/04 02:06:12;;;;;;;7.30;1.30;;;;;;;11.44;100.00;101278.28;5064105;28;20228;-72
2022/10/04 02:08:41;;;;;;;4.83;1.00;;;;;;;11.44;100.00;101272.22;5087243;28;20194;-71
2022/10/04 02:11:08;;;;;;;4.20;1.27;;;;;;;11.43;100.00;101278.31;5082871;28;20209;-71
2022/10/04 02:13:39;;;;;;;1.63;1.20;;;;;;;11.42;100.00;101272.22;5068232;28;20194;-71
2022/10/04 02:16:09;;;;;;;4.87;1.30;;;;;;;11.42;100.00;101272.22;5082593;28;20237;-72
2022/10/04 02:18:37;;;;;;;2.10;1.17;;;;;;;11.40;100.00;101273.13;5060270;28;20582;-72
2022/10/04 02:21:05;;;;;;;8.77;1.30;;;;;;;11.41;100.00;101272.25;5078927;28;20203;-72
2022/10/04 02:23:34;;;;;;;5.87;1.17;;;;;;;11.38;100.00;101270.59;5078190;28;20289;-72
2022/10/04 02:26:04;;;;;;;2.97;1.43;;;;;;;11.39;100.00;101271.44;5080319;28;20210;-72
2022/10/04 02:28:34;;;;;;;3.90;1.27;;;;;;;11.37;100.00;101274.06;5080449;28;20187;-71
2022/10/04 02:33:48;;;;;;;3.60;1.70;;;;;;;11.33;100.00;101272.41;5078235;28;20204;-71
2022/10/04 02:36:16;;;;;;;3.73;1.40;;;;;;;11.33;100.00;101265.44;5063475;28;20234;-72
2022/10/04 02:38:49;;;;;;;6.43;1.47;;;;;;;11.32;100.00;101273.28;5083703;28;20619;-71
2022/10/04 02:41:24;;;;;;;3.63;1.50;;;;;;;11.30;100.00;101281.16;5073617;28;20206;-72
2022/10/04 02:43:58;;;;;;;1.73;1.07;;;;;;;11.32;100.00;101278.50;5080861;28;20221;-72
2022/10/04 02:46:27;;;;;;;3.37;1.40;;;;;;;11.33;100.00;101280.25;5079282;28;21123;-72
2022/10/04 02:48:57;;;;;;;5.33;1.30;;;;;;;11.32;100.00;101279.38;5085051;28;20194;-72
2022/10/04 02:51:30;;;;;;;1.83;1.17;;;;;;;11.31;100.00;101275.06;5079274;28;20200;-72
2022/10/04 02:54:04;;;;;;;2.37;1.50;;;;;;;11.31;100.00;101274.16;5082811;28;20198;-71
2022/10/04 02:56:31;;;;;;;6.20;1.53;;;;;;;11.31;100.00;101263.72;5061632;28;20226;-72
2022/10/04 02:59:02;;;;;;;1.87;1.27;;;;;;;11.31;100.00;101271.56;5080779;28;20194;-72
2022/10/04 03:01:42;;;;;;;4.43;1.40;;;;;;;11.32;100.00;101270.69;5078644;28;20284;-72
2022/10/04 03:04:12;;;;;;;3.47;1.60;;;;;;;11.32;100.00;101270.69;5074939;28;20278;-72
2022/10/04 03:06:39;;;;;;;1.83;1.03;;;;;;;11.31;100.00;101262.00;5079634;28;20687;-72
2022/10/04 03:09:06;;;;;;;4.07;1.40;;;;;;;11.32;100.00;101273.28;5080373;28;20570;-72
2022/10/04 03:11:35;;;;;;;4.57;1.60;;;;;;;11.31;100.00;101266.34;5081445;28;20199;-71
2022/10/04 03:14:09;;;;;;;4.53;1.63;;;;;;;11.31;100.00;101268.94;5079261;28;20678;-71
2022/10/04 03:16:37;;;;;;;4.20;1.63;;;;;;;11.28;100.00;101271.63;5077434;28;20245;-72
2022/10/04 03:19:04;;;;;;;3.30;1.30;;;;;;;11.28;100.00;101275.09;5079724;28;20202;-72
2022/10/04 03:21:32;;;;;;;2.10;1.43;;;;;;;11.29;100.00;101268.13;5058555;28;20661;-71
2022/10/04 03:24:01;;;;;;;7.77;1.67;;;;;;;11.29;100.00;101268.13;5079198;28;20369;-72
2022/10/04 03:26:36;;;;;;;3.47;1.60;;;;;;;11.27;100.00;101272.50;5081194;28;20474;-72
2022/10/04 03:29:08;;;;;;;3.13;1.40;;;;;;;11.27;100.00;101270.75;5082928;28;20197;-72
2022/10/04 03:31:37;;;;;;;4.47;1.70;;;;;;;11.27;100.00;101275.13;5082613;28;20628;-71
2022/10/04 03:34:04;;;;;;;3.57;1.63;;;;;;;11.24;100.00;101264.72;5081910;28;20784;-72
2022/10/04 03:36:30;;;;;;;2.93;1.47;;;;;;;11.23;100.00;101269.09;5083547;28;20214;-71
2022/10/04 03:38:58;;;;;;;4.27;1.70;;;;;;;11.21;100.00;101270.88;5078532;28;20216;-72
2022/10/04 03:41:25;;;;;;;5.37;1.53;;;;;;;11.20;100.00;101269.16;5077308;28;20205;-72
2022/10/04 03:43:54;;;;;;;2.60;1.50;;;;;;;11.14;100.00;101266.66;5076649;28;20194;-71
2022/10/04 03:46:24;;;;;;;7.47;1.50;;;;;;;11.11;100.00;101269.31;5054759;28;20305;-72
2022/10/04 03:48:53;;;;;;;1.93;1.17;;;;;;;11.06;100.00;101268.53;5081536;28;20186;-72
2022/10/04 03:51:22;;;;;;;4.93;1.60;;;;;;;11.03;100.00;101265.97;5079661;28;20198;-72
2022/10/04 03:53:52;;;;;;;4.07;1.57;;;;;;;11.00;100.00;101266.91;5060489;28;20210;-72
2022/10/04 03:56:21;;;;;;;9.70;2.03;;;;;;;10.96;100.00;101270.47;5080690;28;20697;-72
2022/10/04 03:58:50;;;;;;;2.90;1.60;;;;;;;10.90;100.00;101268.81;5080101;28;20565;-72
2022/10/04 04:01:39;;;;;;;4.77;1.50;;;;;;;10.83;100.00;101268.94;5075758;28;20660;-72
2022/10/04 04:04:21;;;;;;;4.87;1.60;;;;;;;10.73;100.00;101268.22;5074180;28;20200;-72
2022/10/04 04:06:56;;;;;;;8.97;1.90;;;;;;;10.66;100.00;101274.44;5058790;28;20302;-72
2022/10/04 04:09:27;;;;;;;3.40;1.40;;;;;;;10.65;100.00;101270.97;5056176;28;20688;-71
2022/10/04 04:11:58;;;;;;;4.50;1.70;;;;;;;10.60;100.00;101286.69;5074801;28;20555;-71
2022/10/04 04:14:26;;;;;;;3.13;1.50;;;;;;;10.56;100.00;101290.22;5073505;28;21984;-71
2022/10/04 04:17:15;;;;;;;4.07;1.70;;;;;;;10.52;100.00;101279.91;5054994;28;20721;-71
2022/10/04 04:19:42;;;;;;;4.90;2.30;;;;;;;10.48;100.00;101286.88;5074673;28;20716;-72
2022/10/04 04:22:15;;;;;;;4.30;1.77;;;;;;;10.45;100.00;101297.38;5076438;28;20213;-72
2022/10/04 04:24:42;;;;;;;2.63;1.57;;;;;;;10.41;100.00;101295.66;5074693;28;20194;-71
2022/10/04 04:27:10;;;;;;;4.73;1.80;;;;;;;10.32;100.00;101294.06;5075012;28;20220;-71
2022/10/04 04:29:46;;;;;;;4.73;1.80;;;;;;;10.24;100.00;101295.91;5076023;28;20198;-72
2022/10/04 04:32:22;;;;;;;4.97;1.43;;;;;;;10.16;100.00;101293.38;5073247;28;20293;-72
2022/10/04 04:34:51;;;;;;;3.33;1.30;;;;;;;10.09;100.00;101286.53;5076163;28;20208;-71
2022/10/04 04:37:19;;;;;;;4.87;1.50;;;;;;;10.03;100.00;101294.44;5076356;28;20231;-72
2022/10/04 04:39:50;;;;;;;4.10;1.60;;;;;;;9.94;100.00;101292.81;5075804;28;20207;-71
2022/10/04 04:42:22;;;;;;;3.73;1.50;;;;;;;9.91;100.00;101292.00;5075972;28;20707;-72
2022/10/04 04:44:51;;;;;;;2.40;1.30;;;;;;;9.85;100.00;101299.00;5076734;28;20207;-71
2022/10/04 04:47:28;;;;;;;2.70;1.30;;;;;;;9.83;100.00;101290.34;5078157;28;20203;-71
2022/10/04 04:49:57;;;;;;;4.73;1.30;;;;;;;9.82;100.00;101288.63;5075160;28;20272;-71
2022/10/04 04:52:28;;;;;;;2.00;1.50;;;;;;;9.79;100.00;101287.81;5057707;28;20670;-72
2022/10/04 04:54:56;;;;;;;3.57;1.50;;;;;;;9.74;100.00;101294.81;5076230;28;20205;-72
2022/10/04 04:57:22;;;;;;;4.10;1.50;;;;;;;9.66;100.00;101287.94;5077741;28;20645;-72
2022/10/04 04:59:52;;;;;;;6.60;1.53;;;;;;;9.59;100.00;101294.09;5080893;28;20206;-71
2022/10/04 05:02:35;;;;;;;3.27;1.20;;;;;;;9.55;100.00;101291.53;5080689;28;20207;-72
2022/10/04 05:05:22;;;;;;;5.60;1.50;;;;;;;9.51;100.00;101297.69;5079221;28;21475;-72
2022/10/04 05:07:49;;;;;;;1.50;1.20;;;;;;;9.50;100.00;101303.75;5075473;28;20191;-72
2022/10/04 05:10:30;;;;;;;3.40;1.47;;;;;;;9.44;100.00;101296.88;5080370;28;20201;-72
2022/10/04 05:12:58;;;;;;;4.37;2.00;;;;;;;9.41;100.00;101304.69;5079339;28;20583;-72
2022/10/04 05:15:26;;;;;;;5.17;1.60;;;;;;;9.31;100.00;101301.34;5063521;28;20706;-71
2022/10/04 05:17:54;;;;;;;5.77;1.83;;;;;;;9.26;100.00;101306.59;5066044;28;20553;-72
2022/10/04 05:20:20;;;;;;;5.23;1.67;;;;;;;9.17;100.00;101311.88;5084122;28;20821;-71
2022/10/04 05:22:49;;;;;;;8.40;2.00;;;;;;;9.08;100.00;101320.63;5068457;28;20202;-72
2022/10/04 05:25:24;;;;;;;4.53;1.80;;;;;;;9.02;100.00;101317.22;5079115;28;20223;-72
2022/10/04 05:27:53;;;;;;;6.33;1.70;;;;;;;8.98;100.00;101324.19;5082914;28;20198;-72
2022/10/04 05:30:34;;;;;;;7.70;1.80;;;;;;;8.92;100.00;101319.06;5083072;28;20209;-72
2022/10/04 05:33:05;;;;;;;2.27;1.63;;;;;;;8.87;100.00;101331.22;5078590;28;20695;-72
2022/10/04 05:35:42;;;;;;;2.37;1.90;;;;;;;8.82;100.00;101327.81;5079100;28;20222;-72
2022/10/04 05:38:17;;;;;;;2.87;2.10;;;;;;;8.79;100.00;101330.41;5078257;28;20557;-72
2022/10/04 05:40:49;;;;;;;3.23;2.07;;;;;;;8.83;100.00;101333.00;5058164;28;20564;-71
2022/10/04 05:43:32;;;;;;;8.13;2.20;;;;;;;8.93;100.00;101335.50;5080610;28;20577;-72
2022/10/04 05:46:15;;;;;;;3.37;1.90;;;;;;;9.02;100.00;101340.63;5077951;28;20357;-71
2022/10/04 05:48:45;;;;;;;5.20;1.87;;;;;;;9.17;100.00;101350.06;5083157;28;20198;-72
2022/10/04 05:51:19;;;;;;;9.57;2.63;;;;;;;9.24;100.00;101349.97;5062875;28;20284;-72
2022/10/04 05:53:46;;;;;;;2.20;2.00;;;;;;;9.35;100.00;101352.47;5079917;28;20292;-72
2022/10/04 05:56:28;;;;;;;3.40;2.00;;;;;;;9.43;100.00;101353.28;5078606;28;20305;-71
2022/10/04 05:59:04;;;;;;;4.37;1.80;;;;;;;9.53;100.00;101363.59;5065888;28;20195;-72
2022/10/04 06:01:40;;;;;;;8.37;2.30;;;;;;;9.63;100.00;101366.09;5061071;28;20211;-72
2022/10/04 06:04:39;;;;;;;5.77;3.10;;;;;;;9.73;100.00;101361.66;5079817;28;20214;-72
2022/10/04 06:07:17;;;;;;;7.93;2.70;;;;;;;9.81;100.00;101362.41;5079215;28;20209;-72
2022/10/04 06:10:05;;;;;;;7.73;2.90;;;;;;;9.88;100.00;101363.22;5078058;28;20569;-72
2022/10/04 06:12:45;;;;;;;5.00;2.13;;;;;;;9.93;100.00;101355.34;5083607;28;20203;-72
2022/10/04 06:15:35;;;;;;;7.67;2.60;;;;;;;9.97;100.00;101360.53;5080377;28;20221;-71
2022/10/04 06:18:22;;;;;;;7.83;2.80;;;;;;;10.02;100.00;101350.88;5081420;28;20208;-72
2022/10/04 06:21:13;;;;;;;7.07;2.47;;;;;;;10.09;100.00;101361.25;5084214;28;20204;-71
2022/10/04 06:23:47;;;;;;;3.10;2.30;;;;;;;10.16;100.00;101362.88;5080908;28;20200;-71
2022/10/04 06:26:20;;;;;;;5.83;2.17;;;;;;;10.21;100.00;101363.69;5077360;28;20664;-72
2022/10/04 06:28:51;;;;;;;10.00;2.80;;;;;;;10.26;100.00;101364.50;5081176;28;20206;-72
2022/10/04 06:31:44;;;;;;;5.53;2.53;;;;;;;10.32;100.00;101367.03;5063820;28;20205;-72
2022/10/04 06:34:43;;;;;;;11.00;2.40;;;;;;;10.37;100.00;101370.44;5073739;28;20255;-72
2022/10/04 06:37:50;;;;;;;7.77;2.47;;;;;;;10.40;100.00;101370.41;5083410;28;20208;-72
2022/10/04 06:40:38;;;;;;;4.33;2.20;;;;;;;10.43;100.00;101379.97;5083819;28;20192;-72
2022/10/04 06:43:30;;;;;;;6.40;2.30;;;;;;;10.48;100.00;101387.69;5080097;28;20209;-72
2022/10/04 06:46:07;;;;;;;5.53;2.10;;;;;;;10.52;100.00;101387.66;5080291;28;20287;-71
2022/10/04 06:49:04;;;;;;;10.43;2.57;;;;;;;10.61;100.00;101386.66;5079266;28;20287;-72
2022/10/04 06:51:42;;;;;;;5.57;2.50;;;;;;;10.69;100.00;101383.94;5077893;28;20197;-72
2022/10/04 06:54:30;;;;;;;6.23;2.20;;;;;;;10.73;100.00;101394.31;5078031;28;20733;-72
2022/10/04 06:57:22;;;;;;;9.03;2.20;;;;;;;10.81;100.00;101391.56;5062349;28;20313;-72
2022/10/04 07:00:07;;;;;;;3.90;1.83;;;;;;;10.88;100.00;101384.53;5079955;28;20201;-72
2022/10/04 07:02:38;;;;;;;2.57;1.73;;;;;;;10.94;100.00;101397.47;5064263;28;20233;-72
2022/10/04 07:05:18;;;;;;;4.80;1.80;;;;;;;10.98;100.00;101397.41;5072251;28;20228;-72
2022/10/04 07:07:48;;;;;;;3.77;1.80;;;;;;;11.05;100.00;101403.38;5079539;28;20201;-71
2022/10/04 07:10:29;;;;;;;4.07;1.70;;;;;;;11.21;100.00;101401.41;5079289;28;20536;-72
2022/10/04 07:13:08;;;;;;;2.30;1.57;;;;;;;11.42;100.00;101399.31;5076952;28;20585;-72
2022/10/04 07:15:44;;;;;;;2.73;1.53;;;;;;;11.46;100.00;101406.22;5056507;28;20227;-72
2022/10/04 07:18:15;;;;;;;5.63;1.70;;;;;;;11.53;100.00;101399.97;5078989;28;20198;-72
2022/10/04 07:20:42;;;;;;;3.47;1.47;;;;;;;11.61;100.00;101400.72;5080498;28;20191;-72
2022/10/04 07:23:15;;;;;;;5.97;1.50;;;;;;;11.67;100.00;101402.34;5076892;28;20291;-72
2022/10/04 07:25:47;;;;;;;3.20;1.67;;;;;;;11.74;100.00;101399.59;5077741;28;20275;-72
2022/10/04 07:31:05;;;;;;;2.27;1.33;;;;;;;11.86;100.00;101414.19;5078719;28;20267;-72
2022/10/04 07:33:41;;;;;;;5.03;1.30;;;;;;;11.89;100.00;101418.47;5078151;28;20194;-71
2022/10/04 07:36:11;;;;;;;2.87;1.30;;;;;;;11.88;100.00;101411.53;5079170;28;20212;-72
2022/10/04 07:38:46;;;;;;;4.57;1.30;;;;;;;11.83;100.00;101416.00;5079542;28;20222;-72
2022/10/04 07:41:20;;;;;;;4.47;1.20;;;;;;;11.78;100.00;101418.69;5079757;28;20595;-72
2022/10/04 07:43:51;;;;;;;2.13;1.47;;;;;;;11.79;100.00;101419.56;5074988;28;20194;-71
2022/10/04 07:46:39;;;;;;;3.07;1.40;;;;;;;11.84;100.00;101418.56;5057684;28;20242;-72
2022/10/04 07:49:13;;;;;;;5.87;1.17;;;;;;;11.92;100.00;101421.06;5077809;28;20202;-72
2022/10/04 07:51:50;;;;;;;2.00;1.27;;;;;;;11.99;100.00;101424.44;5075433;28;20196;-72
2022/10/04 07:54:22;;;;;;;3.67;1.40;;;;;;;11.96;100.00;101420.13;5072475;28;20201;-72
2022/10/04 07:56:58;;;;;;;6.00;1.57;;;;;;;12.06;100.00;101423.41;5072985;28;20581;-72
2022/10/04 07:59:38;;;;;;;1.27;1.00;;;;;;;12.11;100.00;101426.81;5083550;28;20206;-71
2022/10/04 08:02:17;;;;;;;4.00;1.27;;;;;;;12.17;100.00;101421.47;5083102;28;20864;-72
2022/10/04 08:04:51;;;;;;;2.53;1.47;;;;;;;12.23;100.00;101434.41;5075526;28;20210;-71
2022/10/04 08:07:25;;;;;;;1.47;1.10;;;;;;;12.30;100.00;101436.00;5076704;28;20211;-72
2022/10/04 08:10:02;;;;;;;4.63;1.30;;;;;;;12.48;100.00;101444.34;5061725;28;20202;-72
2022/10/04 08:12:43;;;;;;;3.50;1.47;;;;;;;12.44;100.00;101451.41;5078086;28;20203;-71
2022/10/04 08:15:28;;;;;;;2.27;1.37;;;;;;;12.48;100.00;101450.44;5079752;28;20299;-72
2022/10/04 08:18:01;;;;;;;6.80;1.13;;;;;;;12.50;100.00;101453.91;5076180;28;20725;-71
2022/10/04 08:20:36;;;;;;;2.20;1.00;;;;;;;12.59;100.00;101449.34;5066222;28;21049;-71
2022/10/04 08:23:38;;;;;;;2.10;1.00;;;;;;;12.69;100.00;101458.72;5062278;28;20538;-71
2022/10/04 08:26:16;;;;;;;4.03;1.43;;;;;;;12.95;100.00;101452.06;5021173;28;20322;-71
2022/10/04 08:31:47;;;;;;;2.83;1.00;;;;;;;13.02;100.00;101464.97;5073249;28;20204;-71
2022/10/04 08:34:31;;;;;;;1.63;1.00;;;;;;;12.90;100.00;101465.25;5082328;28;20203;-71
2022/10/04 08:37:08;;;;;;;2.60;1.20;;;;;;;12.91;100.00;101459.13;5079344;28;20242;-72
2022/10/04 08:39:52;;;;;;;3.10;1.47;;;;;;;13.01;100.00;101465.84;5082457;28;20234;-71
2022/10/04 08:42:55;;;;;;;1.90;1.07;;;;;;;13.17;100.00;101462.88;5078137;28;20582;-71
2022/10/04 08:46:08;;;;;;;1.63;1.43;;;;;;;13.29;100.00;101465.22;5058640;28;20232;-71
2022/10/04 08:49:09;;;;;;;4.83;1.20;;;;;;;13.41;100.00;101461.47;5057345;28;20485;-71
2022/10/04 08:52:18;;;;;;;2.90;1.10;;;;;;;13.56;100.00;101455.88;5046344;28;20579;-71
2022/10/04 08:55:06;;;;;;;2.47;1.50;;;;;;;13.58;100.00;101471.56;5057624;28;20221;-71
2022/10/04 08:58:02;;;;;;;2.60;1.13;;;;;;;13.59;100.00;101475.88;5072832;28;20225;-71
2022/10/04 09:00:50;;;;;;;2.43;1.40;;;;;;;13.63;100.00;101478.38;5064753;28;20197;-71
2022/10/04 09:04:02;;;;;;;1.43;1.13;;;;;;;13.68;100.00;101472.16;5076411;28;20198;-71
2022/10/04 09:06:40;;;;;;;2.40;1.07;;;;;;;13.69;100.00;101477.38;5081256;28;20615;-71
2022/10/04 09:09:43;;;;;;;2.17;1.40;;;;;;;13.64;100.00;101474.84;5063947;28;20236;-71
2022/10/04 09:12:22;;;;;;;4.27;1.40;;;;;;;13.76;100.00;101481.53;5062716;28;21562;-71
2022/10/04 09:15:16;;;;;;;0.90;0.90;;;;;;;13.88;100.00;101475.13;5080363;28;20201;-71
2022/10/04 09:17:54;;;;;;;1.90;1.13;;;;;;;13.89;100.00;101476.00;5075934;28;20868;-71
2022/10/04 09:20:31;;;;;;;3.20;1.60;;;;;;;13.81;100.00;101478.81;5082122;28;20206;-71
2022/10/04 09:23:12;;;;;;;3.03;1.87;;;;;;;13.79;100.00;101476.22;5077285;28;20212;-71
2022/10/04 09:25:52;;;;;;;3.87;1.60;;;;;;;13.68;100.00;101486.13;5077548;28;20240;-71
2022/10/04 09:28:42;;;;;;;7.43;1.60;;;;;;;13.86;100.00;101473.44;5080453;28;20221;-71
2022/10/04 09:31:22;;;;;;;3.40;1.70;;;;;;;13.95;100.00;101483.69;5072178;28;20205;-71
2022/10/04 09:34:09;;;;;;;4.77;1.50;;;;;;;13.96;100.00;101493.28;5055353;28;20209;-71
2022/10/04 09:37:00;;;;;;;2.73;1.40;;;;;;;13.95;100.00;101486.31;5079933;28;20282;-71
2022/10/04 09:39:46;;;;;;;2.63;1.40;;;;;;;13.84;100.00;101489.19;5061665;28;20198;-71
2022/10/04 09:42:33;;;;;;;2.17;1.50;;;;;;;13.88;100.00;101489.97;5079172;28;20212;-71
2022/10/04 09:45:31;;;;;;;2.90;1.40;;;;;;;13.97;100.00;101489.75;5083955;28;20198;-71
2022/10/04 09:48:19;;;;;;;6.00;1.57;;;;;;;13.92;100.00;101494.25;5063810;28;20213;-71
2022/10/04 09:51:24;;;;;;;2.60;1.63;;;;;;;14.17;100.00;101486.59;5082283;28;20769;-71
2022/10/04 09:54:03;;;;;;;3.80;1.33;;;;;;;14.28;100.00;101500.28;5080930;28;20490;-71
2022/10/04 09:56:58;;;;;;;2.50;1.17;;;;;;;14.41;100.00;101494.69;5081425;28;20253;-71
2022/10/04 09:59:41;;;;;;;1.27;0.90;;;;;;;14.33;100.00;101501.00;5077742;28;20195;-71
2022/10/04 10:02:39;;;;;;;1.80;1.00;;;;;;;14.45;100.00;101501.56;5067895;28;20703;-71
2022/10/04 10:05:28;;;;;;;2.43;0.83;;;;;;;14.48;100.00;101509.34;5078292;28;20221;-71
2022/10/04 10:08:06;;;;;;;1.63;1.20;;;;;;;14.49;100.00;101504.06;5068474;28;20194;-71
2022/10/04 10:13:57;;;;;;;2.57;1.30;;;;;;;14.69;100.00;101519.25;5087102;28;20564;-71
2022/10/04 10:16:44;;;;;;;3.33;1.13;;;;;;;14.83;100.00;101512.72;5081577;28;20784;-71
2022/10/04 10:19:31;;;;;;;2.13;1.40;;;;;;;14.85;100.00;101509.16;5084973;28;20208;-71
2022/10/04 10:22:18;;;;;;;1.83;1.40;;;;;;;14.69;100.00;101513.16;5075554;28;20926;-71
2022/10/04 10:25:12;;;;;;;4.63;1.13;;;;;;;14.49;100.00;101511.94;5061968;28;20700;-71
2022/10/04 10:27:52;;;;;;;2.97;1.20;;;;;;;14.65;100.00;101511.50;5083631;28;20202;-71
2022/10/04 10:30:35;;;;;;;2.70;1.40;;;;;;;14.70;100.00;101507.84;5081388;28;20193;-71
2022/10/04 10:33:31;;;;;;;2.67;1.40;;;;;;;14.58;100.00;101521.31;5082574;28;20679;-71
2022/10/04 10:36:15;;;;;;;2.47;1.23;;;;;;;14.52;100.00;101506.59;5052878;28;20249;-71
2022/10/04 10:38:55;;;;;;;2.50;1.23;;;;;;;14.68;100.00;101509.66;5084348;28;20677;-71
2022/10/04 10:41:37;;;;;;;2.77;1.13;;;;;;;14.78;100.00;101502.38;5084546;28;20202;-71
2022/10/04 10:44:21;;;;;;;2.67;1.20;;;;;;;14.85;100.00;101510.94;5067157;28;20223;-71
2022/10/04 10:47:04;;;;;;;2.50;1.10;;;;;;;14.82;100.00;101509.25;5081792;28;20221;-71
2022/10/04 10:49:45;;;;;;;3.00;1.47;;;;;;;14.80;100.00;101507.59;5083312;28;20197;-71
2022/10/04 10:52:43;;;;;;;3.00;1.53;;;;;;;14.94;100.00;101501.00;5057502;28;20743;-71
2022/10/04 10:55:42;;;;;;;2.80;1.00;;;;;;;15.00;100.00;101501.72;5059017;28;20218;-71
2022/10/04 10:58:35;;;;;;;2.43;1.20;;;;;;;15.15;100.00;101501.25;5036276;28;20300;-71
2022/10/04 11:01:24;;;;;;;4.07;1.30;;;;;;;15.08;100.00;101505.84;5063382;28;20217;-71
2022/10/04 11:04:13;;;;;;;3.23;1.20;;;;;;;14.90;100.00;101496.75;5078206;28;20202;-71
2022/10/04 11:07:17;;;;;;;3.33;1.20;;;;;;;14.71;100.00;101488.56;5079130;28;20225;-71
2022/10/04 11:10:05;;;;;;;2.83;1.50;;;;;;;14.74;100.00;101493.75;4994032;28;20820;-71
2022/10/04 11:12:53;;;;;;;2.13;1.40;;;;;;;14.87;100.00;101496.00;5069296;28;20229;-71
2022/10/04 11:15:39;;;;;;;1.97;1.10;;;;;;;15.08;100.00;101491.84;5082575;28;20224;-71
2022/10/04 11:18:44;;;;;;;3.03;1.40;;;;;;;15.33;100.00;101476.16;5077822;28;20511;-71
2022/10/04 11:21:40;;;;;;;3.60;1.20;;;;;;;15.48;100.00;101482.72;5079696;28;20196;-71
2022/10/04 11:24:30;;;;;;;1.90;1.20;;;;;;;15.56;100.00;101488.53;5070814;28;20201;-71
2022/10/04 11:27:11;;;;;;;2.37;1.10;;;;;;;15.56;100.00;101491.16;5074606;28;20432;-71
2022/10/04 11:29:58;;;;;;;2.23;1.00;;;;;;;15.58;100.00;101494.59;5077816;28;20220;-71
2022/10/04 11:33:04;;;;;;;2.53;1.20;;;;;;;15.60;100.00;101491.94;5075413;28;20198;-71
2022/10/04 11:35:54;;;;;;;1.13;0.90;;;;;;;15.64;100.00;101494.41;5074569;28;20224;-71
2022/10/04 11:38:50;;;;;;;3.23;1.10;;;;;;;15.69;100.00;101502.16;5072443;28;20217;-71
2022/10/04 11:41:27;;;;;;;4.83;1.43;;;;;;;15.79;100.00;101495.69;5074521;28;20700;-71
2022/10/04 11:44:14;;;;;;;2.30;1.00;;;;;;;15.79;100.00;101494.84;5072941;28;20202;-71
2022/10/04 11:46:47;;;;;;;3.13;1.10;;;;;;;15.80;100.00;101493.94;5072932;28;20725;-71
2022/10/04 11:49:34;;;;;;;1.10;0.80;;;;;;;15.81;100.00;101493.00;5076086;28;20201;-71
2022/10/04 11:52:29;;;;;;;1.17;0.90;;;;;;;15.81;100.00;101490.38;5072521;28;20219;-71
2022/10/04 11:55:32;;;;;;;3.37;1.00;;;;;;;15.71;100.00;101479.31;5080816;28;20202;-71
2022/10/04 11:58:07;;;;;;;0.77;0.60;;;;;;;15.65;100.00;101482.97;5071463;28;20693;-71
2022/10/04 12:00:53;;;;;;;1.10;0.80;;;;;;;15.76;100.00;101471.28;5073808;28;20197;-71
2022/10/04 12:03:43;;;;;;;2.10;0.90;;;;;;;15.82;100.00;101471.91;5081842;28;20197;-71
2022/10/04 12:06:23;;;;;;;1.93;0.73;;;;;;;15.77;100.00;101475.63;5069603;28;20217;-71
2022/10/04 12:09:04;;;;;;;1.20;1.00;;;;;;;15.75;100.00;101477.47;5072652;28;20208;-71
2022/10/04 12:14:50;;;;;;;3.13;0.97;;;;;;;15.74;100.00;101471.28;5058711;28;20213;-72
2022/10/04 12:17:58;;;;;;;3.70;0.83;;;;;;;15.82;100.00;101477.19;5080776;28;20213;-72
2022/10/04 12:20:42;;;;;;;1.70;0.80;;;;;;;15.84;100.00;101470.09;5043448;28;20203;-72
2022/10/04 12:23:31;;;;;;;3.33;0.80;;;;;;;15.87;100.00;101467.38;5079335;28;20196;-72
2022/10/04 12:26:12;;;;;;;1.30;0.70;;;;;;;16.01;100.00;101468.66;5077754;28;20225;-72